Airfield :
LOGIN :

Register | Disclaimer

   EN    FR    IT 

 










Legend :    VFR   Marginal VFR   IFR   Intensive IFR   Very Intensive IFR
Visi :
Ceiling :
>= 8 km
>= 3000ft
5 to 8 km
1000 to 3000 ft
1500m to 5 km
500 to 1000 ft
800 to 1500m
200 to 500 ft
< 800m
< 200 ft
Symbols :   Thunderstorms  Fog  Heavy snow  Heavy precipitations  Wind > 20 kt
SIGMETs :     Misc.  Thunderstorms  Icing  Turbulence  Mountain Waves  Volcanic Ashes






- Airport Elevation : 38 ft
- IATA code : BOH


EGHH - Bournemouth

CURRENT METAR :
  • 232020Z 36006KT 9000 OVC015 12/11 Q1006

EXPIRED METARs :
  • 231950Z 02006KT 9000 OVC015 12/11 Q1006
  • 231920Z 05004KT 8000 BKN016 12/11 Q1007
  • 231850Z 03003KT 8000 BKN018 12/11 Q1008
  • 231820Z 05003KT 9999 BKN018 12/11 Q1008
  • 231750Z 35004KT 9999 SCT018 12/11 Q1008

TAF TAF EGHH
Valid from the 23 at 21:00 until the 24 at 06:00 UTC


232001Z 2321/2406 02005KT 8000 FEW008 BKN020
TEMPO 2321/2406 4000 -RADZ FEW003 BKN008
PROB40
TEMPO 2400/2406 1200 DZ BR BKN003
PROB30 2403/2406 0600 FG BKN001
ATIS : +44 1202 364 151
Met : +44 1202 364 158 (TAF)



MET'MAP, your aeronautical weather chart ! - Copyright ORBIFLY December 2007 - Disclaimer

ORBIFLY MET'MAP TEAM :

Programming & Development : Alexandra Zaïnal
Concept & Development : Baudouin d'Aumeries
Co-Development & Prog : Marc-Olivier Méhu
Technical & hardware support : Manuel Goepfert

Contact : metmap@orbifly.com




SOURCES & CREDITS :

   NOAA